createdAt,value
2017-05-22T00:01:18.897Z,3.22
2017-05-22T00:03:47.137Z,3.27
2017-05-22T00:06:15.401Z,2.60
2017-05-22T00:08:43.652Z,2.67
2017-05-22T00:11:11.924Z,2.57
2017-05-22T00:13:40.166Z,2.72
2017-05-22T00:16:08.416Z,3.12
2017-05-22T00:18:36.648Z,3.03
2017-05-22T00:21:04.916Z,2.92
2017-05-22T00:23:33.189Z,3.25
2017-05-22T00:26:01.428Z,2.72
2017-05-22T00:28:29.688Z,3.00
2017-05-22T00:30:57.929Z,3.83
2017-05-22T00:33:26.178Z,3.83
2017-05-22T00:35:54.464Z,3.58
2017-05-22T00:38:22.734Z,3.53
2017-05-22T00:40:50.964Z,3.83
2017-05-22T00:43:19.209Z,4.90
2017-05-22T00:45:47.500Z,3.50
2017-05-22T00:48:15.754Z,3.02
2017-05-22T00:50:44.017Z,3.70
2017-05-22T00:53:12.274Z,3.62
2017-05-22T00:55:40.520Z,3.55
2017-05-22T00:58:08.785Z,3.60
2017-05-22T01:00:37.029Z,4.10
2017-05-22T01:03:05.288Z,4.52
2017-05-22T01:05:33.547Z,3.33
2017-05-22T01:08:01.833Z,3.27
2017-05-22T01:10:30.077Z,3.98
2017-05-22T01:12:58.340Z,3.68
2017-05-22T01:15:26.613Z,4.93
2017-05-22T01:17:54.876Z,4.87
2017-05-22T01:20:23.118Z,3.60
2017-05-22T01:22:51.376Z,4.38
2017-05-22T01:25:19.628Z,3.98
2017-05-22T01:27:47.971Z,4.35
2017-05-22T01:30:16.228Z,3.82
2017-05-22T01:32:44.468Z,4.58
2017-05-22T01:35:12.729Z,4.63
2017-05-22T01:37:40.994Z,3.63
2017-05-22T01:40:09.227Z,4.68
2017-05-22T01:42:37.492Z,3.45
2017-05-22T01:45:05.744Z,4.90
2017-05-22T01:47:34.009Z,4.72
2017-05-22T01:50:02.265Z,4.05
2017-05-22T01:52:30.532Z,4.35
2017-05-22T01:54:58.804Z,4.22
2017-05-22T01:57:27.036Z,5.07
2017-05-22T01:59:55.300Z,4.60
2017-05-22T02:02:23.609Z,4.23
2017-05-22T02:04:51.848Z,6.13
2017-05-22T02:07:20.101Z,4.57
2017-05-22T02:09:48.365Z,4.85
2017-05-22T02:12:16.608Z,5.28
2017-05-22T02:14:44.868Z,5.20
2017-05-22T02:17:13.117Z,8.10
2017-05-22T02:19:41.372Z,5.08
2017-05-22T02:22:09.620Z,5.55
2017-05-22T02:24:37.874Z,9.55
2017-05-22T02:27:06.148Z,6.75
2017-05-22T02:29:34.397Z,6.58
2017-05-22T02:32:02.665Z,7.53
2017-05-22T02:34:30.918Z,6.63
2017-05-22T02:36:59.161Z,8.25
2017-05-22T02:39:27.421Z,9.48
2017-05-22T02:41:55.663Z,6.72
2017-05-22T02:44:23.929Z,8.48
2017-05-22T02:46:52.176Z,5.88
2017-05-22T02:49:20.416Z,8.10
2017-05-22T02:51:48.672Z,7.88
2017-05-22T02:54:16.917Z,9.28
2017-05-22T02:56:45.190Z,9.47
2017-05-22T02:59:13.440Z,9.70
2017-05-22T03:01:41.696Z,7.57
2017-05-22T03:04:09.957Z,7.32
2017-05-22T03:06:38.200Z,7.43
2017-05-22T03:09:06.468Z,6.87
2017-05-22T03:11:34.705Z,7.38
2017-05-22T03:14:02.981Z,5.78
2017-05-22T03:16:31.220Z,6.50
2017-05-22T03:18:59.464Z,7.13
2017-05-22T03:21:27.728Z,8.03
2017-05-22T03:23:55.969Z,8.23
2017-05-22T03:26:24.236Z,6.17
2017-05-22T03:28:52.476Z,6.63
2017-05-22T03:31:20.734Z,6.25
2017-05-22T03:33:49.007Z,15.80
2017-05-22T03:36:17.287Z,22.50
2017-05-22T03:38:45.520Z,9.42
2017-05-22T03:41:13.765Z,7.37
2017-05-22T03:43:42.021Z,6.78
2017-05-22T03:46:10.254Z,8.08
2017-05-22T03:48:38.518Z,6.02
2017-05-22T03:51:06.760Z,9.47
2017-05-22T03:53:35.032Z,6.33
2017-05-22T03:56:03.269Z,6.17
2017-05-22T03:58:31.509Z,8.32
2017-05-22T04:00:59.768Z,6.38
2017-05-22T04:03:28.004Z,7.10
2017-05-22T04:05:56.257Z,6.33
2017-05-22T04:08:24.524Z,7.93
2017-05-22T04:10:52.900Z,6.82
2017-05-22T04:13:21.130Z,7.53
2017-05-22T04:15:49.369Z,7.25
2017-05-22T04:18:17.629Z,8.30
2017-05-22T04:20:45.868Z,6.62
2017-05-22T04:23:14.129Z,6.77
2017-05-22T04:25:42.389Z,8.78
2017-05-22T04:28:10.632Z,8.77
2017-05-22T04:30:38.883Z,9.00
2017-05-22T04:33:07.127Z,10.60
2017-05-22T04:35:35.388Z,9.48
2017-05-22T04:38:03.629Z,6.75
2017-05-22T04:40:31.869Z,8.02
2017-05-22T04:43:00.120Z,7.37
2017-05-22T04:45:28.381Z,7.15
2017-05-22T04:47:56.641Z,8.35
2017-05-22T04:50:24.872Z,6.90
2017-05-22T04:52:53.122Z,8.05
2017-05-22T04:55:21.384Z,9.02
2017-05-22T04:57:49.617Z,7.45
2017-05-22T05:00:17.869Z,12.78
2017-05-22T05:02:46.124Z,8.50
2017-05-22T05:05:14.369Z,8.02
2017-05-22T05:07:42.632Z,8.58
2017-05-22T05:10:10.882Z,7.80
2017-05-22T05:12:39.120Z,7.85
2017-05-22T05:15:07.461Z,8.10
2017-05-22T05:17:35.697Z,8.32
2017-05-22T05:20:03.952Z,7.08
2017-05-22T05:22:32.205Z,8.93
2017-05-22T05:25:00.471Z,8.70
2017-05-22T05:27:28.707Z,9.00
2017-05-22T05:29:56.952Z,8.38
2017-05-22T05:32:25.232Z,7.58
2017-05-22T05:34:54.468Z,8.68
2017-05-22T05:37:22.741Z,9.05
2017-05-22T05:39:50.993Z,10.75
2017-05-22T05:42:19.265Z,10.03
2017-05-22T05:44:47.508Z,10.25
2017-05-22T05:47:15.743Z,9.25
2017-05-22T05:49:44.010Z,8.22
2017-05-22T05:52:12.297Z,8.45
2017-05-22T05:54:40.538Z,9.17
2017-05-22T05:57:08.777Z,10.60
2017-05-22T05:59:37.033Z,8.75
2017-05-22T06:02:05.276Z,8.37
2017-05-22T06:04:33.516Z,8.27
2017-05-22T06:07:01.776Z,8.02
2017-05-22T06:09:30.017Z,8.02
2017-05-22T06:11:58.285Z,7.65
2017-05-22T06:14:26.519Z,8.87
2017-05-22T06:16:54.789Z,10.05
2017-05-22T06:19:23.029Z,8.57
2017-05-22T06:21:51.293Z,7.50
2017-05-22T06:24:19.562Z,6.78
2017-05-22T06:26:47.853Z,7.00
2017-05-22T06:29:16.121Z,7.02
2017-05-22T06:31:44.381Z,6.18
2017-05-22T06:34:12.628Z,6.65
2017-05-22T06:36:40.889Z,6.63
2017-05-22T06:39:09.137Z,6.30
2017-05-22T06:41:37.400Z,7.35
2017-05-22T06:44:05.651Z,6.25
2017-05-22T06:46:33.921Z,4.85
2017-05-22T06:49:02.197Z,5.86
2017-05-22T06:51:30.432Z,5.04
2017-05-22T06:53:58.709Z,4.64
2017-05-22T06:56:26.981Z,5.24
2017-05-22T06:58:55.254Z,5.80
2017-05-22T07:01:23.516Z,5.44
2017-05-22T07:03:51.779Z,4.30
2017-05-22T07:06:20.032Z,4.62
2017-05-22T07:08:48.276Z,5.30
2017-05-22T07:11:16.540Z,6.42
2017-05-22T07:13:44.776Z,5.10
2017-05-22T07:16:13.016Z,5.58
2017-05-22T07:18:41.293Z,4.96
2017-05-22T07:21:09.537Z,5.06
2017-05-22T07:23:37.810Z,4.82
2017-05-22T07:26:06.044Z,5.58
2017-05-22T07:28:34.302Z,4.76
2017-05-22T07:31:02.568Z,5.06
2017-05-22T07:33:30.805Z,6.98
2017-05-22T07:35:59.075Z,7.04
2017-05-22T07:38:27.321Z,5.18
2017-05-22T07:40:55.557Z,5.92
2017-05-22T07:43:23.813Z,4.56
2017-05-22T07:45:52.060Z,4.66
2017-05-22T07:48:20.321Z,4.82
2017-05-22T07:50:48.561Z,4.56
2017-05-22T07:53:16.817Z,5.64
2017-05-22T07:55:45.058Z,5.28
2017-05-22T07:58:13.321Z,4.78
2017-05-22T08:00:41.562Z,4.82
2017-05-22T08:03:09.805Z,7.60
2017-05-22T08:05:38.073Z,4.20
2017-05-22T08:08:06.320Z,5.02
2017-05-22T08:10:34.577Z,5.40
2017-05-22T08:13:02.820Z,5.20
2017-05-22T08:15:31.077Z,5.18
2017-05-22T08:17:59.336Z,5.40
2017-05-22T08:20:27.576Z,4.58
2017-05-22T08:22:55.845Z,4.48
2017-05-22T08:25:24.104Z,4.20
2017-05-22T08:27:52.373Z,3.88
2017-05-22T08:30:20.624Z,5.36
2017-05-22T08:32:48.863Z,5.04
2017-05-22T08:35:17.138Z,4.24
2017-05-22T08:37:45.381Z,4.64
2017-05-22T08:40:13.647Z,4.48
2017-05-22T08:42:41.901Z,5.10
2017-05-22T08:45:10.155Z,4.74
2017-05-22T08:47:38.426Z,3.82
2017-05-22T08:50:06.665Z,4.38
2017-05-22T08:52:34.925Z,5.72
2017-05-22T08:55:03.260Z,4.90
2017-05-22T08:57:31.516Z,4.50
2017-05-22T08:59:59.759Z,4.50
2017-05-22T09:02:28.017Z,4.90
2017-05-22T09:04:56.266Z,4.96
2017-05-22T09:07:24.520Z,5.20
2017-05-22T09:09:52.767Z,4.70
2017-05-22T09:12:21.017Z,3.96
2017-05-22T09:14:49.277Z,4.82
2017-05-22T09:17:17.513Z,6.00
2017-05-22T09:19:45.769Z,4.16
2017-05-22T09:22:14.024Z,3.74
2017-05-22T09:24:42.265Z,3.72
2017-05-22T09:27:10.525Z,3.70
2017-05-22T09:29:38.764Z,4.18
2017-05-22T09:32:07.024Z,3.14
2017-05-22T09:34:35.276Z,4.04
2017-05-22T09:37:03.543Z,2.60
2017-05-22T09:39:31.796Z,3.96
2017-05-22T09:42:00.047Z,3.76
2017-05-22T09:44:28.405Z,3.34
2017-05-22T09:46:56.649Z,3.18
2017-05-22T09:49:24.909Z,4.00
2017-05-22T09:51:53.148Z,4.48
2017-05-22T09:54:21.425Z,3.54
2017-05-22T09:56:49.660Z,4.30
2017-05-22T09:59:17.906Z,3.62
2017-05-22T10:01:46.169Z,3.04
2017-05-22T10:04:14.410Z,3.28
2017-05-22T10:06:42.664Z,5.80
2017-05-22T10:09:10.901Z,2.58
2017-05-22T10:11:39.155Z,3.96
2017-05-22T10:14:07.400Z,4.58
2017-05-22T10:16:35.666Z,3.32
2017-05-22T10:19:03.924Z,3.70
2017-05-22T10:21:32.156Z,3.74
2017-05-22T10:24:00.412Z,3.92
2017-05-22T10:26:28.663Z,3.22
2017-05-22T10:28:56.925Z,3.24
2017-05-22T10:31:25.160Z,3.18
2017-05-22T10:33:53.443Z,3.40
2017-05-22T10:36:21.684Z,3.30
2017-05-22T10:38:49.928Z,3.94
2017-05-22T10:41:18.192Z,5.32
2017-05-22T10:43:46.437Z,2.96
2017-05-22T10:46:14.696Z,2.86
2017-05-22T10:48:42.949Z,3.54
2017-05-22T10:51:11.229Z,4.02
2017-05-22T10:53:39.460Z,3.42
2017-05-22T10:56:07.733Z,3.38
2017-05-22T10:58:35.976Z,4.84
2017-05-22T11:01:04.216Z,4.50
2017-05-22T11:03:32.484Z,3.76
2017-05-22T11:06:00.726Z,4.14
2017-05-22T11:08:28.962Z,4.22
2017-05-22T11:10:57.224Z,4.16
2017-05-22T11:13:25.456Z,3.54
2017-05-22T11:15:53.717Z,3.70
2017-05-22T11:18:21.961Z,3.86
2017-05-22T11:20:50.223Z,3.38
2017-05-22T11:23:18.469Z,3.00
2017-05-22T11:25:46.717Z,3.42
2017-05-22T11:28:14.988Z,3.92
2017-05-22T11:30:43.229Z,4.22
2017-05-22T11:33:11.496Z,5.36
2017-05-22T11:35:39.736Z,3.50
2017-05-22T11:38:07.979Z,3.64
2017-05-22T11:40:36.238Z,3.22
2017-05-22T11:43:04.493Z,2.84
2017-05-22T11:45:32.744Z,4.52
2017-05-22T11:48:00.988Z,3.62
2017-05-22T11:50:29.256Z,3.60
2017-05-22T11:52:57.500Z,3.30
2017-05-22T11:55:25.737Z,3.54
2017-05-22T11:57:54.004Z,3.88
2017-05-22T12:00:22.253Z,2.68
2017-05-22T12:02:50.508Z,3.04
2017-05-22T12:05:18.797Z,3.08
2017-05-22T12:07:47.056Z,3.56
2017-05-22T12:10:15.305Z,3.90
2017-05-22T12:12:43.540Z,3.70
2017-05-22T12:15:11.821Z,3.48
2017-05-22T12:17:40.060Z,3.94
2017-05-22T12:20:08.317Z,3.88
2017-05-22T12:22:36.561Z,3.92
2017-05-22T12:25:04.801Z,3.96
2017-05-22T12:27:33.061Z,4.32
2017-05-22T12:30:01.295Z,3.36
2017-05-22T12:32:29.557Z,5.84
2017-05-22T12:34:57.798Z,3.30
2017-05-22T12:37:26.039Z,3.70
2017-05-22T12:39:54.311Z,3.36
2017-05-22T12:42:22.561Z,5.48
2017-05-22T12:44:50.811Z,4.22
2017-05-22T12:47:19.061Z,3.26
2017-05-22T12:49:47.317Z,3.88
2017-05-22T12:52:15.556Z,4.58
2017-05-22T12:54:43.792Z,3.86
2017-05-22T12:57:12.052Z,3.56
2017-05-22T12:59:40.290Z,5.10
2017-05-22T13:02:08.561Z,3.70
2017-05-22T13:04:36.792Z,3.52
2017-05-22T13:07:05.049Z,4.64
2017-05-22T13:09:33.322Z,2.90
2017-05-22T13:12:01.564Z,4.08
2017-05-22T13:14:29.837Z,3.68
2017-05-22T13:16:58.076Z,3.18
2017-05-22T13:19:26.333Z,3.26
2017-05-22T13:21:54.608Z,4.36
2017-05-22T13:24:22.850Z,3.74
2017-05-22T13:26:51.104Z,4.46
2017-05-22T13:29:19.358Z,4.20
2017-05-22T13:31:47.617Z,3.86
2017-05-22T13:34:15.861Z,5.06
2017-05-22T13:36:44.114Z,3.26
2017-05-22T13:39:12.377Z,3.74
2017-05-22T13:41:40.617Z,3.60
2017-05-22T13:44:08.888Z,4.34
2017-05-22T13:46:37.128Z,4.68
2017-05-22T13:49:05.368Z,3.44
2017-05-22T13:51:33.628Z,4.04
2017-05-22T13:54:01.868Z,4.50
2017-05-22T13:56:30.140Z,5.22
2017-05-22T13:58:58.394Z,3.46
2017-05-22T14:01:26.657Z,4.14
2017-05-22T14:03:54.901Z,3.84
2017-05-22T14:06:23.141Z,3.84
2017-05-22T14:08:51.398Z,3.48
2017-05-22T14:11:19.636Z,3.84
2017-05-22T14:13:47.904Z,5.32
2017-05-22T14:16:16.149Z,3.60
2017-05-22T14:18:44.385Z,4.18
2017-05-22T14:21:12.645Z,4.26
2017-05-22T14:23:40.894Z,3.92
2017-05-22T14:26:09.157Z,4.60
2017-05-22T14:28:37.396Z,3.50
2017-05-22T14:31:05.654Z,2.94
2017-05-22T14:33:33.897Z,3.72
2017-05-22T14:36:02.144Z,3.42
2017-05-22T14:38:30.410Z,5.00
2017-05-22T14:40:58.751Z,3.62
2017-05-22T14:43:27.004Z,4.44
2017-05-22T14:45:55.248Z,3.84
2017-05-22T14:48:23.522Z,3.30
2017-05-22T14:50:51.757Z,3.70
2017-05-22T14:53:20.035Z,4.12
2017-05-22T14:55:48.286Z,3.72
2017-05-22T14:58:16.530Z,4.04
2017-05-22T15:00:44.765Z,3.64
2017-05-22T15:03:13.147Z,4.10
2017-05-22T15:05:41.380Z,3.98
2017-05-22T15:08:09.642Z,4.84
2017-05-22T15:10:37.885Z,3.28
2017-05-22T15:13:06.149Z,4.18
2017-05-22T15:15:34.412Z,4.40
2017-05-22T15:18:02.657Z,3.64
2017-05-22T15:20:30.920Z,4.28
2017-05-22T15:22:59.198Z,4.40
2017-05-22T15:25:27.465Z,4.12
2017-05-22T15:27:55.730Z,4.44
2017-05-22T15:30:23.977Z,5.20
2017-05-22T15:32:52.242Z,4.22
2017-05-22T15:35:20.492Z,5.70
2017-05-22T15:37:48.760Z,4.32
2017-05-22T15:40:17.024Z,4.12
2017-05-22T15:42:45.269Z,5.08
2017-05-22T15:45:13.540Z,5.62
2017-05-22T15:47:41.773Z,5.78
2017-05-22T15:50:10.050Z,4.50
2017-05-22T15:52:38.296Z,4.70
2017-05-22T15:55:06.561Z,4.18
2017-05-22T15:57:34.865Z,3.70
2017-05-22T16:00:03.100Z,4.22
2017-05-22T16:02:31.353Z,4.06
2017-05-22T16:04:58.836Z,4.48
2017-05-22T16:07:27.101Z,3.84
2017-05-22T16:09:55.354Z,4.12
2017-05-22T16:12:23.611Z,3.54
2017-05-22T16:14:51.873Z,3.58
2017-05-22T16:17:20.120Z,4.32
2017-05-22T16:19:48.382Z,3.90
2017-05-22T16:22:16.631Z,3.80
2017-05-22T16:24:44.904Z,3.30
2017-05-22T16:27:13.153Z,3.60
2017-05-22T16:29:41.407Z,3.66
2017-05-22T16:32:09.681Z,4.08
2017-05-22T16:34:37.921Z,4.06
2017-05-22T16:37:06.192Z,3.84
2017-05-22T16:39:34.444Z,4.84
2017-05-22T16:42:02.689Z,4.34
2017-05-22T16:44:30.952Z,4.12
2017-05-22T16:46:59.200Z,4.72
2017-05-22T16:49:27.473Z,4.20
2017-05-22T16:51:55.716Z,4.72
2017-05-22T16:54:23.998Z,3.94
2017-05-22T16:56:52.248Z,3.92
2017-05-22T16:59:20.519Z,4.26
2017-05-22T17:01:48.773Z,3.86
2017-05-22T17:04:18.074Z,3.80
2017-05-22T17:06:46.349Z,3.56
2017-05-22T17:09:14.816Z,4.64
2017-05-22T17:11:43.076Z,4.72
2017-05-22T17:14:11.312Z,3.90
2017-05-22T17:16:39.594Z,4.84
2017-05-22T17:19:07.846Z,6.58
2017-05-22T17:21:36.097Z,4.82
2017-05-22T17:24:04.373Z,3.90
2017-05-22T17:26:32.616Z,4.94
2017-05-22T17:29:00.865Z,5.56
2017-05-22T17:31:29.143Z,4.44
2017-05-22T17:33:57.388Z,4.16
2017-05-22T17:36:25.661Z,4.00
2017-05-22T17:38:53.920Z,4.50
2017-05-22T17:41:22.184Z,4.16
2017-05-22T17:43:50.440Z,5.72
2017-05-22T17:46:18.680Z,3.96
2017-05-22T17:48:46.949Z,6.08
2017-05-22T17:51:15.209Z,4.44
2017-05-22T17:53:43.496Z,5.12
2017-05-22T17:56:11.749Z,4.28
2017-05-22T17:58:39.998Z,5.72
2017-05-22T18:01:08.274Z,4.48
2017-05-22T18:03:36.533Z,4.70
2017-05-22T18:06:04.796Z,3.96
2017-05-22T18:08:33.042Z,4.52
2017-05-22T18:11:01.305Z,4.40
2017-05-22T18:13:29.551Z,4.52
2017-05-22T18:15:57.813Z,4.44
2017-05-22T18:18:26.078Z,4.10
2017-05-22T18:20:54.320Z,6.02
2017-05-22T18:23:22.565Z,4.64
2017-05-22T18:25:50.841Z,5.06
2017-05-22T18:28:19.125Z,4.46
2017-05-22T18:30:47.387Z,5.58
2017-05-22T18:33:15.643Z,4.84
2017-05-22T18:35:43.910Z,5.08
2017-05-22T18:38:12.179Z,3.90
2017-05-22T18:40:40.433Z,4.26
2017-05-22T18:43:08.705Z,4.14
2017-05-22T18:45:36.952Z,3.92
2017-05-22T18:48:05.230Z,5.64
2017-05-22T18:50:33.485Z,3.60
2017-05-22T18:53:03.453Z,3.96
2017-05-22T18:55:31.736Z,5.02
2017-05-22T18:57:59.994Z,3.82
2017-05-22T19:00:28.268Z,4.42
2017-05-22T19:02:56.513Z,4.90
2017-05-22T19:05:24.824Z,5.46
2017-05-22T19:07:53.122Z,4.30
2017-05-22T19:10:21.373Z,4.96
2017-05-22T19:12:49.649Z,4.50
2017-05-22T19:15:17.910Z,5.60
2017-05-22T19:17:46.157Z,4.14
2017-05-22T19:20:14.421Z,4.04
2017-05-22T19:22:42.914Z,4.78
2017-05-22T19:25:11.154Z,5.62
2017-05-22T19:27:39.407Z,4.36
2017-05-22T19:30:07.673Z,4.70
2017-05-22T19:32:35.934Z,4.56
2017-05-22T19:35:04.211Z,5.38
2017-05-22T19:37:32.480Z,5.00
2017-05-22T19:40:00.740Z,5.88
2017-05-22T19:42:29.029Z,6.02
2017-05-22T19:44:57.331Z,4.62
2017-05-22T19:47:25.605Z,5.10
2017-05-22T19:49:53.857Z,4.77
2017-05-22T19:52:22.134Z,5.50
2017-05-22T19:54:50.389Z,5.05
2017-05-22T19:57:18.676Z,6.48
2017-05-22T19:59:46.920Z,5.90
2017-05-22T20:02:15.177Z,5.77
2017-05-22T20:04:43.444Z,4.88
2017-05-22T20:07:11.757Z,6.05
2017-05-22T20:09:40.032Z,6.22
2017-05-22T20:12:08.273Z,5.18
2017-05-22T20:14:36.556Z,6.15
2017-05-22T20:17:04.799Z,5.77
2017-05-22T20:19:33.074Z,5.78
2017-05-22T20:22:01.356Z,6.33
2017-05-22T20:24:29.610Z,5.57
2017-05-22T20:26:57.893Z,5.10
2017-05-22T20:29:26.149Z,6.27
2017-05-22T20:31:54.398Z,5.30
2017-05-22T20:34:22.669Z,6.47
2017-05-22T20:36:50.919Z,6.72
2017-05-22T20:39:19.182Z,6.47
2017-05-22T20:41:47.453Z,7.25
2017-05-22T20:44:15.700Z,8.30
2017-05-22T20:46:43.973Z,6.18
2017-05-22T20:49:12.238Z,6.80
2017-05-22T20:51:40.506Z,7.70
2017-05-22T20:54:08.784Z,9.13
2017-05-22T20:56:37.042Z,7.53
2017-05-22T20:59:05.312Z,6.33
2017-05-22T21:01:33.568Z,5.53
2017-05-22T21:04:01.837Z,6.62
2017-05-22T21:06:30.084Z,6.05
2017-05-22T21:08:58.329Z,7.35
2017-05-22T21:11:26.605Z,7.85
2017-05-22T21:13:54.849Z,6.55
2017-05-22T21:16:23.116Z,8.18
2017-05-22T21:18:51.372Z,6.95
2017-05-22T21:21:19.608Z,9.23
2017-05-22T21:23:47.867Z,9.82
2017-05-22T21:26:16.138Z,10.92
2017-05-22T21:28:44.409Z,10.27
2017-05-22T21:31:12.661Z,9.85
2017-05-22T21:33:41.683Z,7.58
2017-05-22T21:36:09.925Z,8.52
2017-05-22T21:38:38.270Z,8.20
2017-05-22T21:41:06.511Z,8.17
2017-05-22T21:43:34.760Z,8.92
2017-05-22T21:46:03.035Z,8.57
2017-05-22T21:48:31.283Z,8.30
2017-05-22T21:50:59.565Z,9.05
2017-05-22T21:53:27.809Z,8.15
2017-05-22T21:55:56.057Z,9.63
2017-05-22T21:58:24.322Z,9.75
2017-05-22T22:00:52.567Z,9.82
2017-05-22T22:03:20.829Z,8.47
2017-05-22T22:05:49.072Z,9.62
2017-05-22T22:08:17.345Z,8.53
2017-05-22T22:10:45.592Z,10.32
2017-05-22T22:13:13.841Z,10.78
2017-05-22T22:15:42.119Z,11.10
2017-05-22T22:18:10.364Z,10.88
2017-05-22T22:20:38.707Z,11.27
2017-05-22T22:23:06.948Z,11.03
2017-05-22T22:25:35.197Z,10.23
2017-05-22T22:28:03.469Z,10.88
2017-05-22T22:30:31.712Z,11.60
2017-05-22T22:32:59.966Z,11.08
2017-05-22T22:35:28.244Z,10.18
2017-05-22T22:37:56.504Z,11.50
2017-05-22T22:40:24.774Z,10.95
2017-05-22T22:42:53.021Z,13.38
2017-05-22T22:45:21.300Z,12.58
2017-05-22T22:47:49.557Z,10.95
2017-05-22T22:50:17.804Z,11.67
2017-05-22T22:52:46.085Z,12.13
2017-05-22T22:55:14.348Z,14.23
2017-05-22T22:57:42.620Z,12.68
2017-05-22T23:00:10.895Z,13.90
2017-05-22T23:02:39.149Z,11.63
2017-05-22T23:05:07.473Z,12.30
2017-05-22T23:07:35.722Z,11.73
2017-05-22T23:10:04.002Z,10.32
2017-05-22T23:12:32.247Z,10.70
2017-05-22T23:15:00.512Z,14.08
2017-05-22T23:17:28.762Z,12.73
2017-05-22T23:19:57.037Z,11.78
2017-05-22T23:22:25.288Z,11.12
2017-05-22T23:24:53.600Z,12.48
2017-05-22T23:27:21.854Z,10.43
2017-05-22T23:29:50.114Z,12.65
2017-05-22T23:32:18.385Z,12.12
2017-05-22T23:34:46.637Z,11.78
2017-05-22T23:37:14.914Z,13.02
2017-05-22T23:39:43.164Z,12.32
2017-05-22T23:42:11.433Z,11.97
2017-05-22T23:44:39.679Z,12.78
2017-05-22T23:47:07.940Z,12.47
2017-05-22T23:49:36.221Z,13.77
2017-05-22T23:52:04.460Z,13.47
2017-05-22T23:54:32.732Z,12.55
2017-05-22T23:57:00.980Z,13.30
2017-05-22T23:59:29.253Z,13.62
